Time;durP1;ratioP1;P1;durP2;ratioP2;P2;SDS_P1;SDS_P2;PMS_P1;PMS_P2;Temp;Humidity;BMP_temperature;BMP_pressure;BME280_temperature;BME280_humidity;BME280_pressure;Samples;Min_cycle;Max_cycle;Signal;HPM_P1;HPM_P2
2022/03/13 00:00:42;;;;;;;9.75;6.97;;;10.80;71.70;;;;;;4972728;28;20036;-81
2022/03/13 00:03:13;;;;;;;9.23;6.28;;;10.80;71.80;;;;;;4964406;28;20042;-80
2022/03/13 00:05:41;;;;;;;8.38;5.65;;;10.80;72.00;;;;;;4957965;28;20031;-80
2022/03/13 00:08:18;;;;;;;13.38;6.43;;;10.80;72.00;;;;;;5004862;28;20082;-80
2022/03/13 00:10:50;;;;;;;8.85;5.88;;;10.80;72.00;;;;;;4975253;28;20054;-79
2022/03/13 00:13:16;;;;;;;9.82;5.90;;;10.80;72.00;;;;;;4960213;28;20039;-80
2022/03/13 00:15:43;;;;;;;8.77;5.63;;;10.80;72.00;;;;;;4966976;28;20035;-79
2022/03/13 00:18:09;;;;;;;9.32;5.90;;;10.80;72.00;;;;;;4969261;28;20038;-76
2022/03/13 00:20:35;;;;;;;9.27;5.93;;;10.80;72.10;;;;;;4971666;28;20111;-78
2022/03/13 00:23:01;;;;;;;10.60;6.50;;;10.70;72.30;;;;;;4977843;28;20015;-75
2022/03/13 00:25:28;;;;;;;8.75;5.90;;;10.80;72.40;;;;;;4983045;28;20022;-75
2022/03/13 00:27:53;;;;;;;9.18;5.70;;;10.80;73.20;;;;;;4996723;28;20029;-74
2022/03/13 00:30:19;;;;;;;8.25;5.45;;;10.70;73.80;;;;;;4983234;28;20027;-76
2022/03/13 00:32:46;;;;;;;9.45;6.50;;;10.70;74.50;;;;;;4983637;28;20100;-80
2022/03/13 00:35:12;;;;;;;9.60;6.18;;;10.60;74.70;;;;;;4967197;28;20130;-80
2022/03/13 00:37:38;;;;;;;9.32;6.00;;;10.60;74.60;;;;;;4954131;28;20520;-79
2022/03/13 00:40:05;;;;;;;10.23;6.60;;;10.60;74.80;;;;;;4951280;28;20047;-77
2022/03/13 00:42:31;;;;;;;8.30;6.05;;;10.60;74.60;;;;;;4959518;28;20518;-79
2022/03/13 00:44:58;;;;;;;9.13;6.35;;;10.70;74.50;;;;;;4956504;28;20164;-80
2022/03/13 00:47:24;;;;;;;9.15;6.15;;;10.60;74.20;;;;;;4971849;28;20460;-80
2022/03/13 00:49:51;;;;;;;8.80;5.70;;;10.60;74.00;;;;;;4955481;28;20208;-79
2022/03/13 00:52:17;;;;;;;8.23;5.32;;;10.60;73.70;;;;;;4972883;28;20550;-81
2022/03/13 00:54:44;;;;;;;9.43;6.07;;;10.70;73.60;;;;;;4949544;28;20635;-81
2022/03/13 00:57:10;;;;;;;9.63;6.30;;;10.70;73.30;;;;;;4956052;28;20290;-81
2022/03/13 00:59:36;;;;;;;10.77;6.63;;;10.80;73.10;;;;;;4950383;28;20038;-81
2022/03/13 01:02:02;;;;;;;9.43;5.90;;;10.70;73.20;;;;;;4961837;28;20038;-81
2022/03/13 01:04:28;;;;;;;10.20;6.45;;;10.80;73.10;;;;;;4963900;28;20035;-80
2022/03/13 01:06:54;;;;;;;9.60;5.78;;;10.70;73.00;;;;;;4967727;28;20396;-79
2022/03/13 01:09:20;;;;;;;10.20;6.07;;;10.80;73.10;;;;;;4945712;28;20550;-79
2022/03/13 01:11:46;;;;;;;9.60;6.22;;;10.80;72.90;;;;;;4957937;28;21263;-81
2022/03/13 01:14:12;;;;;;;10.13;6.75;;;10.80;73.00;;;;;;4955045;28;20035;-79
2022/03/13 01:16:40;;;;;;;8.25;5.68;;;10.80;72.90;;;;;;4951360;28;20043;-79
2022/03/13 01:19:07;;;;;;;9.25;6.28;;;10.70;73.00;;;;;;4953467;28;20125;-80
2022/03/13 01:21:38;;;;;;;10.55;6.55;;;10.70;73.10;;;;;;4959792;28;20047;-79
2022/03/13 01:24:13;;;;;;;9.63;5.82;;;10.70;73.00;;;;;;4963885;28;20043;-81
2022/03/13 01:26:39;;;;;;;9.60;6.25;;;10.70;72.90;;;;;;4957520;28;20524;-81
2022/03/13 01:29:11;;;;;;;10.23;6.43;;;10.70;72.80;;;;;;4984873;28;20034;-80
2022/03/13 01:31:40;;;;;;;8.90;5.93;;;10.70;72.60;;;;;;4990208;28;20105;-81
2022/03/13 01:34:11;;;;;;;9.55;6.40;;;10.70;72.60;;;;;;4957482;28;20182;-78
2022/03/13 01:36:37;;;;;;;10.55;6.55;;;10.70;72.70;;;;;;4976494;28;20029;-81
2022/03/13 01:39:03;;;;;;;9.20;5.82;;;10.70;72.40;;;;;;4983167;28;20033;-81
2022/03/13 01:41:30;;;;;;;9.23;5.20;;;10.70;72.30;;;;;;4964611;28;20377;-82
2022/03/13 01:43:57;;;;;;;9.68;5.68;;;10.70;71.90;;;;;;4959491;28;20539;-80
2022/03/13 01:46:23;;;;;;;8.02;5.32;;;10.70;71.80;;;;;;4956121;28;20731;-81
2022/03/13 01:48:58;;;;;;;9.10;5.45;;;10.80;71.40;;;;;;4978658;28;20079;-80
2022/03/13 01:51:26;;;;;;;8.55;5.68;;;10.80;71.50;;;;;;4953779;28;20162;-79
2022/03/13 01:53:54;;;;;;;8.07;5.05;;;10.80;71.90;;;;;;5013710;28;20036;-82
2022/03/13 01:56:21;;;;;;;9.23;5.63;;;10.80;72.10;;;;;;4958485;28;20031;-81
2022/03/13 01:58:55;;;;;;;8.43;5.30;;;10.80;72.30;;;;;;4956450;28;20031;-81
2022/03/13 02:01:24;;;;;;;8.43;5.32;;;10.70;72.30;;;;;;4970886;28;20047;-79
2022/03/13 02:03:49;;;;;;;8.00;5.20;;;10.80;71.90;;;;;;4995018;28;20037;-81
2022/03/13 02:06:17;;;;;;;9.32;4.82;;;10.70;71.80;;;;;;4961770;28;20035;-80
2022/03/13 02:08:44;;;;;;;7.40;4.20;;;10.80;71.60;;;;;;4955696;28;20100;-81
2022/03/13 02:11:15;;;;;;;9.00;4.85;;;10.80;71.60;;;;;;4961645;28;20309;-81
2022/03/13 02:13:41;;;;;;;7.43;4.40;;;10.80;71.70;;;;;;4966488;28;20031;-82
2022/03/13 02:16:07;;;;;;;7.38;4.63;;;10.80;72.50;;;;;;4962304;28;20054;-77
2022/03/13 02:18:33;;;;;;;8.65;4.40;;;10.70;72.70;;;;;;4978045;28;20027;-77
2022/03/13 02:20:59;;;;;;;7.85;4.35;;;10.80;72.40;;;;;;4987413;28;20027;-77
2022/03/13 02:23:27;;;;;;;7.53;4.05;;;10.70;72.40;;;;;;4970658;28;20595;-79
2022/03/13 02:25:57;;;;;;;9.18;4.85;;;10.70;72.60;;;;;;4961855;28;20030;-80
2022/03/13 02:28:25;;;;;;;8.48;4.40;;;10.70;72.50;;;;;;4955929;28;20382;-81
2022/03/13 02:30:53;;;;;;;6.30;4.00;;;10.70;72.90;;;;;;4952365;28;20572;-81
2022/03/13 02:33:22;;;;;;;7.72;4.20;;;10.70;72.80;;;;;;4952922;28;20042;-80
2022/03/13 02:36:28;;;;;;;7.22;4.05;;;10.70;73.00;;;;;;4960338;28;20047;-79
2022/03/13 02:38:54;;;;;;;8.38;4.25;;;10.70;73.20;;;;;;4975567;28;20063;-82
2022/03/13 02:41:20;;;;;;;8.18;4.65;;;10.60;73.70;;;;;;4984905;28;20427;-81
2022/03/13 02:43:45;;;;;;;7.70;4.68;;;10.60;74.20;;;;;;4976249;28;20029;-81
2022/03/13 02:46:23;;;;;;;7.50;4.68;;;10.60;74.70;;;;;;4964843;28;20035;-80
2022/03/13 02:48:50;;;;;;;7.97;4.13;;;10.60;75.80;;;;;;4954270;28;20030;-80
2022/03/13 02:51:16;;;;;;;8.45;5.10;;;10.50;76.70;;;;;;4955429;28;20379;-81
2022/03/13 02:53:42;;;;;;;8.43;4.95;;;10.40;77.50;;;;;;5004676;28;20366;-80
2022/03/13 02:56:08;;;;;;;8.05;4.90;;;10.40;78.10;;;;;;4997334;28;20043;-81
2022/03/13 02:58:34;;;;;;;9.25;5.13;;;10.30;78.40;;;;;;4961094;28;20126;-81
2022/03/13 03:01:00;;;;;;;8.30;5.00;;;10.20;78.90;;;;;;4959800;28;20458;-80
2022/03/13 03:03:26;;;;;;;8.30;5.65;;;10.20;79.30;;;;;;4971121;28;20047;-80
2022/03/13 03:05:53;;;;;;;8.57;5.70;;;10.10;79.20;;;;;;4954686;28;20031;-81
2022/03/13 03:08:19;;;;;;;8.65;5.75;;;10.10;79.90;;;;;;4956270;28;20034;-82
2022/03/13 03:10:45;;;;;;;9.00;5.88;;;10.10;79.80;;;;;;4975356;28;20572;-77
2022/03/13 03:13:13;;;;;;;10.18;6.43;;;10.00;79.80;;;;;;4968315;28;20039;-78
2022/03/13 03:15:40;;;;;;;8.57;5.57;;;10.10;80.10;;;;;;4955318;28;20065;-80
2022/03/13 03:18:09;;;;;;;9.50;5.88;;;10.00;80.00;;;;;;4959436;28;20042;-80
2022/03/13 03:20:35;;;;;;;9.35;6.13;;;10.00;79.70;;;;;;4960131;28;20092;-80
2022/03/13 03:23:02;;;;;;;9.90;6.43;;;10.10;79.90;;;;;;4966599;28;20035;-77
2022/03/13 03:25:28;;;;;;;10.40;6.70;;;10.00;79.70;;;;;;4972873;28;20110;-81
2022/03/13 03:27:56;;;;;;;9.38;6.15;;;10.00;80.10;;;;;;4952861;28;20541;-81
2022/03/13 03:30:27;;;;;;;10.65;7.07;;;10.00;80.40;;;;;;4969642;28;20074;-81
2022/03/13 03:32:53;;;;;;;11.60;6.85;;;10.00;80.70;;;;;;4951041;28;20031;-80
2022/03/13 03:35:22;;;;;;;10.60;7.15;;;10.00;81.00;;;;;;4955107;28;20148;-79
2022/03/13 03:37:49;;;;;;;11.07;7.55;;;9.90;81.40;;;;;;4956329;28;20072;-81
2022/03/13 03:40:15;;;;;;;11.20;8.13;;;9.90;81.30;;;;;;4958760;28;20362;-80
2022/03/13 03:42:42;;;;;;;10.15;7.50;;;9.90;81.40;;;;;;4968225;28;21093;-79
2022/03/13 03:45:08;;;;;;;10.35;7.25;;;9.90;81.30;;;;;;4949411;28;20065;-79
2022/03/13 03:47:34;;;;;;;12.23;7.93;;;9.80;81.20;;;;;;4975601;28;20040;-80
2022/03/13 03:50:00;;;;;;;11.25;7.38;;;9.90;80.80;;;;;;4964009;28;20032;-78
2022/03/13 03:52:26;;;;;;;12.52;8.10;;;9.90;80.90;;;;;;4955263;28;20134;-79
2022/03/13 03:54:52;;;;;;;11.98;7.75;;;9.90;80.70;;;;;;4964390;28;20138;-81
2022/03/13 03:57:19;;;;;;;11.73;7.97;;;9.80;80.40;;;;;;4950952;28;20068;-80
2022/03/13 03:59:44;;;;;;;11.30;8.32;;;9.80;80.50;;;;;;4957667;28;20126;-79
2022/03/13 04:02:10;;;;;;;11.82;8.45;;;9.90;80.60;;;;;;4958506;28;20130;-78
2022/03/13 04:04:36;;;;;;;11.30;7.68;;;9.80;80.50;;;;;;4990380;28;20059;-79
2022/03/13 04:07:02;;;;;;;11.73;8.27;;;9.80;80.40;;;;;;4987328;28;20094;-81
2022/03/13 04:09:27;;;;;;;12.48;8.40;;;9.80;80.10;;;;;;4959231;28;20084;-80
2022/03/13 04:11:53;;;;;;;12.10;8.65;;;9.80;80.10;;;;;;4955660;28;20053;-76
2022/03/13 04:14:21;;;;;;;12.75;8.40;;;9.80;80.40;;;;;;4963073;28;20539;-80
2022/03/13 04:16:47;;;;;;;13.10;8.73;;;9.80;80.30;;;;;;4985938;28;20164;-78
2022/03/13 04:19:13;;;;;;;11.80;8.02;;;9.80;80.30;;;;;;4954051;28;20118;-80
2022/03/13 04:21:41;;;;;;;11.95;8.90;;;9.80;80.20;;;;;;4959028;28;20059;-80
2022/03/13 04:24:11;;;;;;;13.15;8.88;;;9.80;80.30;;;;;;4954900;28;20177;-80
2022/03/13 04:26:39;;;;;;;13.60;8.63;;;9.80;80.10;;;;;;4959440;28;20050;-80
2022/03/13 04:29:06;;;;;;;13.43;8.43;;;9.80;80.10;;;;;;4978972;28;20554;-80
2022/03/13 04:31:35;;;;;;;12.13;8.43;;;9.80;79.90;;;;;;4954431;28;20191;-78
2022/03/13 04:34:01;;;;;;;13.00;7.80;;;9.80;80.10;;;;;;4958508;28;20070;-78
2022/03/13 04:36:32;;;;;;;11.70;8.35;;;9.80;80.20;;;;;;4972115;28;20113;-80
2022/03/13 04:38:58;;;;;;;12.48;8.38;;;9.80;80.10;;;;;;4968074;28;20031;-78
2022/03/13 04:41:23;;;;;;;12.35;8.57;;;9.80;80.10;;;;;;4957795;28;20047;-80
2022/03/13 04:43:49;;;;;;;11.60;7.97;;;9.90;80.10;;;;;;4970993;28;20399;-80
2022/03/13 04:46:15;;;;;;;12.48;8.27;;;9.90;80.00;;;;;;4972385;28;20439;-79
2022/03/13 04:48:40;;;;;;;12.50;8.68;;;9.90;80.00;;;;;;4964280;28;20085;-78
2022/03/13 04:51:06;;;;;;;11.65;7.93;;;9.90;79.60;;;;;;4960909;28;20112;-79
2022/03/13 04:53:32;;;;;;;12.20;8.10;;;9.90;79.70;;;;;;4958757;28;20035;-80
2022/03/13 04:55:58;;;;;;;11.43;8.05;;;9.90;79.60;;;;;;4958381;28;20030;-81
2022/03/13 04:58:24;;;;;;;11.48;8.05;;;9.90;79.60;;;;;;4957554;28;20066;-80
2022/03/13 05:00:50;;;;;;;12.23;7.95;;;9.90;79.60;;;;;;4970204;28;20055;-80
2022/03/13 05:03:16;;;;;;;13.18;8.38;;;9.90;79.60;;;;;;4979118;28;20475;-80
2022/03/13 05:05:42;;;;;;;11.70;7.68;;;10.00;79.30;;;;;;4960148;28;20046;-80
2022/03/13 05:08:14;;;;;;;10.18;6.95;;;10.00;79.30;;;;;;4975101;28;20520;-78
2022/03/13 05:10:40;;;;;;;11.48;8.35;;;10.00;79.30;;;;;;4963326;28;20305;-79
2022/03/13 05:13:08;;;;;;;11.52;8.70;;;10.00;79.20;;;;;;4960140;28;20578;-81
2022/03/13 05:15:36;;;;;;;10.30;7.22;;;10.00;79.10;;;;;;4959934;28;20035;-80
2022/03/13 05:18:02;;;;;;;11.23;7.53;;;10.00;78.90;;;;;;4957094;28;20067;-79
2022/03/13 05:20:28;;;;;;;12.48;8.55;;;10.00;79.00;;;;;;4975401;28;20677;-78
2022/03/13 05:22:55;;;;;;;11.55;7.97;;;10.10;78.60;;;;;;4955866;28;20043;-78
2022/03/13 05:25:23;;;;;;;12.20;8.23;;;10.10;78.90;;;;;;4956454;28;20536;-77
2022/03/13 05:27:49;;;;;;;12.40;8.52;;;10.10;78.60;;;;;;4955293;28;20551;-77
2022/03/13 05:30:14;;;;;;;11.55;8.20;;;10.10;78.60;;;;;;4957637;28;20097;-79
2022/03/13 05:32:40;;;;;;;11.93;8.18;;;10.10;78.70;;;;;;4968668;28;20553;-81
2022/03/13 05:35:06;;;;;;;12.35;8.48;;;10.10;78.80;;;;;;4956918;28;20054;-80
2022/03/13 05:37:31;;;;;;;12.85;8.93;;;10.10;78.70;;;;;;4960864;28;20035;-80
2022/03/13 05:39:57;;;;;;;11.52;8.25;;;10.10;78.70;;;;;;4957360;28;20041;-80
2022/03/13 05:42:24;;;;;;;13.95;8.60;;;10.10;78.60;;;;;;4980243;28;20482;-80
2022/03/13 05:44:53;;;;;;;13.23;8.88;;;10.10;78.60;;;;;;4960498;28;20437;-79
2022/03/13 05:47:19;;;;;;;13.05;8.95;;;10.10;78.70;;;;;;4965830;28;20447;-80
2022/03/13 05:49:46;;;;;;;13.20;9.63;;;10.10;78.90;;;;;;4959047;28;20068;-80
2022/03/13 05:52:13;;;;;;;12.50;8.45;;;10.10;79.00;;;;;;4959370;28;20035;-80
2022/03/13 05:54:39;;;;;;;13.48;8.93;;;10.10;78.80;;;;;;4976212;28;20055;-80
2022/03/13 05:57:09;;;;;;;13.73;9.70;;;10.10;78.90;;;;;;4978878;28;20108;-76
2022/03/13 05:59:35;;;;;;;13.68;9.57;;;10.10;78.90;;;;;;4974255;28;20031;-78
2022/03/13 06:02:04;;;;;;;14.15;10.10;;;10.10;78.90;;;;;;4975742;28;20061;-76
2022/03/13 06:04:32;;;;;;;14.23;10.35;;;10.00;79.10;;;;;;4977122;28;20110;-77
2022/03/13 06:06:59;;;;;;;15.40;10.38;;;10.00;79.20;;;;;;4985401;28;20030;-79
2022/03/13 06:09:24;;;;;;;15.98;10.88;;;10.00;79.30;;;;;;4959679;28;20070;-79
2022/03/13 06:11:50;;;;;;;15.55;10.98;;;9.90;79.40;;;;;;4979337;28;20059;-80
2022/03/13 06:14:16;;;;;;;16.30;11.20;;;9.80;79.50;;;;;;4956412;28;20138;-79
2022/03/13 06:16:41;;;;;;;14.68;10.60;;;9.80;79.60;;;;;;4957892;28;20043;-78
2022/03/13 06:19:07;;;;;;;16.60;11.00;;;9.80;79.70;;;;;;4980091;28;20113;-79
2022/03/13 06:21:33;;;;;;;14.90;11.38;;;9.70;79.90;;;;;;4957503;28;20134;-80
2022/03/13 06:23:58;;;;;;;16.70;11.45;;;9.60;80.10;;;;;;4952081;28;20042;-79
2022/03/13 06:26:24;;;;;;;15.27;10.55;;;9.60;80.30;;;;;;4965011;28;20405;-81
2022/03/13 06:28:49;;;;;;;16.92;10.95;;;9.70;80.30;;;;;;4961405;28;20607;-79
2022/03/13 06:31:16;;;;;;;18.10;12.75;;;9.70;80.40;;;;;;4955770;28;20101;-79
2022/03/13 06:33:41;;;;;;;16.27;11.10;;;9.80;80.20;;;;;;4960634;28;20023;-77
2022/03/13 06:36:07;;;;;;;15.18;11.20;;;9.80;80.00;;;;;;4958337;28;20050;-80
2022/03/13 06:38:33;;;;;;;15.60;11.60;;;9.90;79.90;;;;;;4964286;28;20397;-78
2022/03/13 06:40:58;;;;;;;17.48;11.30;;;9.90;79.80;;;;;;4960674;28;20455;-79
2022/03/13 06:43:24;;;;;;;14.32;10.68;;;10.00;79.60;;;;;;4955925;28;20035;-78
2022/03/13 06:45:50;;;;;;;15.80;11.27;;;10.00;79.30;;;;;;4983894;28;20324;-79
2022/03/13 06:48:20;;;;;;;14.18;11.07;;;10.10;78.90;;;;;;4959414;28;20402;-80
2022/03/13 06:50:46;;;;;;;14.18;10.57;;;10.20;78.30;;;;;;4960435;28;20038;-80
2022/03/13 06:53:11;;;;;;;15.48;10.73;;;10.20;78.30;;;;;;4962881;28;20043;-78
2022/03/13 06:55:37;;;;;;;17.90;12.45;;;10.20;78.10;;;;;;4965142;28;20038;-80
2022/03/13 06:58:03;;;;;;;15.75;12.10;;;10.30;78.30;;;;;;4956160;28;21783;-79
2022/03/13 07:00:28;;;;;;;15.60;11.43;;;10.40;78.00;;;;;;4960254;28;20043;-79
2022/03/13 07:02:54;;;;;;;14.07;10.73;;;10.40;77.90;;;;;;4960698;28;20126;-79
2022/03/13 07:05:20;;;;;;;15.48;11.27;;;10.40;77.60;;;;;;4978645;28;20073;-80
2022/03/13 07:07:46;;;;;;;16.33;11.60;;;10.50;77.40;;;;;;4959764;28;20050;-77
2022/03/13 07:10:12;;;;;;;15.65;11.30;;;10.50;77.30;;;;;;4955756;28;20043;-80
2022/03/13 07:12:44;;;;;;;15.57;11.13;;;10.50;77.00;;;;;;4953966;28;20038;-80
2022/03/13 07:15:12;;;;;;;14.63;10.70;;;10.60;77.00;;;;;;4954068;28;20031;-79
2022/03/13 07:17:38;;;;;;;14.00;10.15;;;10.60;76.70;;;;;;4956238;28;20072;-80
2022/03/13 07:20:06;;;;;;;16.23;11.07;;;10.60;76.60;;;;;;4954801;28;20039;-80
2022/03/13 07:22:31;;;;;;;15.45;10.10;;;10.60;76.30;;;;;;4966924;28;20039;-80
2022/03/13 07:24:57;;;;;;;15.18;11.45;;;10.60;76.30;;;;;;4982381;28;20039;-80
2022/03/13 07:27:23;;;;;;;15.98;10.88;;;10.60;76.40;;;;;;4972130;28;20045;-77
2022/03/13 07:29:50;;;;;;;16.02;10.70;;;10.60;76.50;;;;;;4969475;28;20044;-81
2022/03/13 07:32:15;;;;;;;15.48;10.40;;;10.60;76.20;;;;;;4951970;28;20039;-80
2022/03/13 07:34:42;;;;;;;14.07;10.07;;;10.60;76.30;;;;;;4951196;28;20047;-78
2022/03/13 07:37:10;;;;;;;15.10;11.45;;;10.70;76.10;;;;;;4964355;28;20032;-79
2022/03/13 07:39:37;;;;;;;15.65;11.23;;;10.70;76.00;;;;;;4949783;28;20044;-80
2022/03/13 07:42:03;;;;;;;14.48;11.25;;;10.70;75.80;;;;;;4952124;28;20058;-81
2022/03/13 07:44:29;;;;;;;15.93;11.57;;;10.60;75.80;;;;;;4956308;28;20086;-81
2022/03/13 07:46:54;;;;;;;14.07;10.35;;;10.60;75.30;;;;;;4966688;28;20063;-76
2022/03/13 07:49:20;;;;;;;15.07;10.70;;;10.70;75.70;;;;;;4968075;28;20471;-81
2022/03/13 07:51:47;;;;;;;14.80;10.70;;;10.70;75.30;;;;;;4984029;28;20042;-76
2022/03/13 07:54:14;;;;;;;14.23;9.90;;;10.60;75.10;;;;;;4959476;28;20055;-76
2022/03/13 07:56:40;;;;;;;16.00;11.05;;;10.70;75.10;;;;;;4956100;28;20031;-77
2022/03/13 07:59:05;;;;;;;13.95;10.80;;;10.80;74.70;;;;;;4949190;28;20429;-78
2022/03/13 08:01:31;;;;;;;15.60;10.63;;;10.80;74.40;;;;;;4954861;28;20070;-79
2022/03/13 08:03:56;;;;;;;14.32;10.10;;;10.80;74.50;;;;;;4955265;28;20059;-79
2022/03/13 08:06:23;;;;;;;15.48;10.70;;;10.80;74.30;;;;;;4957984;28;20122;-80
2022/03/13 08:08:49;;;;;;;14.15;10.02;;;10.90;74.50;;;;;;4959175;28;20039;-81
2022/03/13 08:11:15;;;;;;;13.68;10.30;;;11.10;74.10;;;;;;4947687;28;20047;-79
2022/03/13 08:13:41;;;;;;;16.90;10.25;;;11.10;73.60;;;;;;4949747;28;20551;-81
2022/03/13 08:16:06;;;;;;;13.00;10.30;;;11.30;72.90;;;;;;4947384;28;20482;-81
2022/03/13 08:18:36;;;;;;;14.05;10.02;;;11.30;72.40;;;;;;4950417;28;20201;-79
2022/03/13 08:21:02;;;;;;;14.82;9.90;;;11.40;72.50;;;;;;4963837;28;20057;-76
2022/03/13 08:23:28;;;;;;;14.88;9.95;;;11.60;72.10;;;;;;4963742;28;20042;-79
2022/03/13 08:25:54;;;;;;;13.90;10.38;;;11.80;71.30;;;;;;4961458;28;20043;-80
2022/03/13 08:28:19;;;;;;;13.95;9.88;;;11.80;71.10;;;;;;4970334;28;20141;-75
2022/03/13 08:30:45;;;;;;;15.05;9.55;;;12.00;70.70;;;;;;4976243;28;20019;-75
2022/03/13 08:33:11;;;;;;;12.73;9.13;;;12.10;69.70;;;;;;4978684;28;20226;-78
2022/03/13 08:35:36;;;;;;;13.60;9.30;;;12.40;68.50;;;;;;4977297;28;20794;-79
2022/03/13 08:38:02;;;;;;;14.52;8.50;;;12.60;67.80;;;;;;4961739;28;20043;-76
2022/03/13 08:40:29;;;;;;;12.40;8.52;;;12.80;67.30;;;;;;4957834;28;20042;-74
2022/03/13 08:42:56;;;;;;;12.23;8.80;;;12.90;65.70;;;;;;4955524;28;20161;-75
2022/03/13 08:45:22;;;;;;;11.25;7.75;;;12.90;66.10;;;;;;4945544;28;20106;-76
2022/03/13 08:47:47;;;;;;;12.45;8.48;;;12.90;65.70;;;;;;4948155;28;20505;-76
2022/03/13 08:50:15;;;;;;;11.65;7.93;;;13.10;65.20;;;;;;4989105;28;20471;-78
2022/03/13 08:52:41;;;;;;;11.98;8.00;;;13.10;65.30;;;;;;4950123;28;20042;-78
2022/03/13 08:55:08;;;;;;;10.75;7.93;;;13.10;64.20;;;;;;4958288;28;20459;-74
2022/03/13 08:57:35;;;;;;;10.52;7.55;;;13.10;64.10;;;;;;4956408;28;20138;-77
2022/03/13 09:00:00;;;;;;;10.68;7.30;;;13.40;64.00;;;;;;4946929;28;20063;-74
2022/03/13 09:02:26;;;;;;;11.18;7.68;;;13.40;63.10;;;;;;4945194;28;20154;-75
2022/03/13 09:04:52;;;;;;;11.38;7.32;;;13.50;63.60;;;;;;4954699;28;20045;-76
2022/03/13 09:07:17;;;;;;;12.00;8.10;;;13.40;63.00;;;;;;4951095;28;20043;-77
2022/03/13 09:09:43;;;;;;;11.50;7.60;;;13.60;63.00;;;;;;4957947;28;20041;-77
2022/03/13 09:12:10;;;;;;;10.55;7.80;;;13.60;62.50;;;;;;4972338;28;20035;-76
2022/03/13 09:14:38;;;;;;;10.10;7.35;;;13.70;61.60;;;;;;4952297;28;20081;-76
2022/03/13 09:17:04;;;;;;;11.70;7.47;;;13.80;61.10;;;;;;4953420;28;20031;-76
2022/03/13 09:19:29;;;;;;;10.15;6.80;;;13.80;61.40;;;;;;4957700;28;20046;-77
2022/03/13 09:21:55;;;;;;;11.02;7.30;;;14.00;60.90;;;;;;4951871;28;20050;-75
2022/03/13 09:24:21;;;;;;;10.63;7.00;;;14.00;61.90;;;;;;4954086;28;20363;-76
2022/03/13 09:26:48;;;;;;;11.50;7.07;;;14.00;60.30;;;;;;4956894;28;20089;-76
2022/03/13 09:29:13;;;;;;;10.27;7.18;;;14.00;59.80;;;;;;4953208;28;20116;-76
2022/03/13 09:31:39;;;;;;;10.73;5.97;;;14.10;61.00;;;;;;4958883;28;20449;-73
2022/03/13 09:34:05;;;;;;;9.65;6.70;;;14.10;59.40;;;;;;4950054;28;20445;-76
2022/03/13 09:36:37;;;;;;;10.75;6.57;;;14.10;59.80;;;;;;4956747;28;20113;-75
2022/03/13 09:39:07;;;;;;;9.63;6.07;;;14.10;59.30;;;;;;4952096;28;20035;-74
2022/03/13 09:41:33;;;;;;;9.68;6.45;;;14.30;59.60;;;;;;4954356;28;20050;-74
2022/03/13 09:43:59;;;;;;;10.68;7.18;;;14.60;58.40;;;;;;4951639;28;20324;-73
2022/03/13 09:46:24;;;;;;;10.20;6.88;;;14.60;58.00;;;;;;4957228;28;20070;-73
2022/03/13 09:48:53;;;;;;;9.43;6.43;;;14.60;57.60;;;;;;4958965;28;20112;-73
2022/03/13 09:51:19;;;;;;;9.63;6.28;;;14.60;58.50;;;;;;4951726;28;20035;-74
2022/03/13 09:53:46;;;;;;;9.48;6.07;;;14.60;58.10;;;;;;4951280;28;20104;-73
2022/03/13 09:56:11;;;;;;;8.30;5.85;;;14.40;57.70;;;;;;4956788;28;20126;-73
2022/03/13 09:58:37;;;;;;;8.73;5.93;;;14.40;58.50;;;;;;4946515;28;20042;-72
2022/03/13 10:01:03;;;;;;;8.88;6.05;;;14.40;58.30;;;;;;4952311;28;20047;-73
2022/03/13 10:03:28;;;;;;;8.75;5.80;;;14.50;58.10;;;;;;4957129;28;20035;-73
2022/03/13 10:05:56;;;;;;;9.18;5.90;;;14.60;57.70;;;;;;4947856;28;20049;-74
2022/03/13 10:08:28;;;;;;;8.13;5.47;;;14.40;57.30;;;;;;4965896;28;20035;-74
2022/03/13 10:10:54;;;;;;;7.88;5.40;;;14.50;57.60;;;;;;4956895;28;20067;-74
2022/03/13 10:14:05;;;;;;;8.68;5.75;;;14.60;57.50;;;;;;4958717;28;20116;-72
2022/03/13 10:16:36;;;;;;;8.15;4.93;;;14.90;56.70;;;;;;4924728;28;20507;-74
2022/03/13 10:19:18;;;;;;;8.48;5.63;;;15.10;56.60;;;;;;4921555;28;20046;-75
2022/03/13 10:22:04;;;;;;;8.35;4.55;;;15.30;55.60;;;;;;4937284;28;20135;-74
2022/03/13 10:24:40;;;;;;;7.25;4.53;;;15.30;55.60;;;;;;4956515;28;20040;-73
2022/03/13 10:27:17;;;;;;;8.52;4.72;;;15.40;54.80;;;;;;4948587;28;20054;-73
2022/03/13 10:29:45;;;;;;;7.38;4.75;;;15.40;55.00;;;;;;4953598;28;20127;-73
2022/03/13 10:32:11;;;;;;;7.32;4.90;;;15.40;54.40;;;;;;4957142;28;20124;-72
2022/03/13 10:36:35;;;;;;;8.10;4.68;;;15.40;54.30;;;;;;5041315;28;20490;-71
2022/03/13 10:39:03;;;;;;;7.70;4.95;;;15.60;53.70;;;;;;5018534;28;20037;-74
2022/03/13 10:41:45;;;;;;;7.65;4.18;;;15.60;54.10;;;;;;5017758;28;20045;-71
2022/03/13 10:44:16;;;;;;;7.30;4.10;;;15.50;53.10;;;;;;5016806;28;20064;-73
2022/03/13 10:46:43;;;;;;;5.95;3.83;;;15.40;53.10;;;;;;5033148;28;20660;-72
2022/03/13 10:49:09;;;;;;;6.13;4.15;;;15.30;52.80;;;;;;5018443;28;20109;-74
2022/03/13 10:51:45;;;;;;;7.15;4.55;;;15.50;53.80;;;;;;5019229;28;20364;-74
2022/03/13 10:54:31;;;;;;;8.07;4.20;;;15.60;53.00;;;;;;5016865;28;20370;-75
2022/03/13 10:57:08;;;;;;;6.38;3.70;;;15.80;51.80;;;;;;5018869;28;20039;-75
2022/03/13 10:59:34;;;;;;;6.70;4.18;;;16.00;52.40;;;;;;5016873;28;20384;-74
2022/03/13 11:02:10;;;;;;;6.40;4.00;;;16.10;51.20;;;;;;5019330;28;20034;-73
2022/03/13 11:04:36;;;;;;;6.88;4.00;;;16.50;51.40;;;;;;5031501;28;20508;-74
2022/03/13 11:07:01;;;;;;;6.70;3.70;;;16.60;50.40;;;;;;5029413;28;20026;-76
2022/03/13 11:09:27;;;;;;;9.98;4.35;;;16.30;51.50;;;;;;5034624;28;20481;-75
2022/03/13 11:11:53;;;;;;;6.32;3.78;;;16.30;50.80;;;;;;5029273;28;20911;-73
2022/03/13 11:14:20;;;;;;;6.13;3.72;;;16.10;51.30;;;;;;5018272;28;20348;-75
2022/03/13 11:16:46;;;;;;;7.47;4.30;;;16.10;51.90;;;;;;5017395;28;20029;-74
2022/03/13 11:19:12;;;;;;;5.95;3.60;;;16.00;51.60;;;;;;5022960;28;20037;-76
2022/03/13 11:21:37;;;;;;;6.00;3.60;;;16.10;51.50;;;;;;5028642;28;20530;-74
2022/03/13 11:24:04;;;;;;;7.30;3.80;;;16.30;50.60;;;;;;5021479;28;20033;-74
2022/03/13 11:26:31;;;;;;;5.97;3.88;;;16.60;50.30;;;;;;5032789;28;20084;-74
2022/03/13 11:28:58;;;;;;;9.05;4.07;;;17.00;50.60;;;;;;5025542;28;20516;-75
2022/03/13 11:31:38;;;;;;;6.53;3.70;;;17.10;49.30;;;;;;5021034;28;20136;-75
2022/03/13 11:34:22;;;;;;;7.18;4.18;;;17.20;48.80;;;;;;5037368;28;20496;-74
2022/03/13 11:36:51;;;;;;;7.28;4.50;;;16.80;49.00;;;;;;5030139;28;20053;-75
2022/03/13 11:39:26;;;;;;;6.63;3.95;;;16.70;49.10;;;;;;5037459;28;20052;-75
2022/03/13 11:41:51;;;;;;;;;;;16.70;48.70;;;;;;5040559;28;20094;-74
2022/03/13 11:44:37;;;;;;;6.63;3.75;;;17.00;49.00;;;;;;5045677;28;19913;-77
2022/03/13 11:47:22;;;;;;;7.40;4.43;;;16.60;48.70;;;;;;5029759;28;20038;-77
2022/03/13 11:49:48;;;;;;;;;;;16.70;49.10;;;;;;5019663;28;20048;-74
2022/03/13 11:52:16;;;;;;;6.30;3.85;;;16.80;49.50;;;;;;5024296;28;19913;-74
2022/03/13 11:54:52;;;;;;;6.78;4.30;;;17.00;50.00;;;;;;5038348;28;20480;-74
2022/03/13 11:57:19;;;;;;;6.95;4.57;;;16.70;49.40;;;;;;5032707;28;20088;-73
2022/03/13 11:59:51;;;;;;;6.80;3.78;;;16.70;49.10;;;;;;5030103;28;20061;-73
2022/03/13 12:02:42;;;;;;;7.45;4.32;;;16.60;49.70;;;;;;5020191;28;20035;-73
2022/03/13 12:05:26;;;;;;;6.47;4.10;;;16.60;49.30;;;;;;5007278;28;20810;-73
2022/03/13 12:08:08;;;;;;;6.85;4.03;;;16.30;50.20;;;;;;5022077;28;20046;-73
2022/03/13 12:10:41;;;;;;;6.38;3.90;;;16.50;51.00;;;;;;5019141;28;20054;-76
2022/03/13 12:13:15;;;;;;;6.82;3.95;;;16.70;50.40;;;;;;5024051;28;20095;-74
2022/03/13 12:15:42;;;;;;;7.00;4.20;;;16.90;50.00;;;;;;5021037;28;20045;-75
2022/03/13 12:18:27;;;;;;;7.20;4.03;;;16.80;48.70;;;;;;5024787;28;20045;-73
2022/03/13 12:21:07;;;;;;;6.05;3.63;;;16.80;49.00;;;;;;5024004;28;20026;-77
2022/03/13 12:23:36;;;;;;;8.02;4.43;;;16.90;49.90;;;;;;5022949;28;20030;-76
2022/03/13 12:26:26;;;;;;;8.50;4.40;;;17.00;48.80;;;;;;5029591;28;20040;-74
2022/03/13 12:28:55;;;;;;;5.82;3.92;;;17.20;50.10;;;;;;5021824;28;20461;-76
2022/03/13 12:31:22;;;;;;;7.80;4.90;;;17.40;49.60;;;;;;5021593;28;20400;-75
2022/03/13 12:33:51;;;;;;;8.45;5.20;;;17.40;49.60;;;;;;5027749;28;20117;-75
2022/03/13 12:36:19;;;;;;;9.95;5.78;;;17.50;49.30;;;;;;5032811;28;20056;-74
2022/03/13 12:38:49;;;;;;;8.93;5.45;;;17.40;50.30;;;;;;5030395;28;20029;-75
2022/03/13 12:41:15;;;;;;;9.57;5.80;;;17.30;50.20;;;;;;5024316;28;20552;-75
2022/03/13 12:44:02;;;;;;;9.27;6.05;;;17.00;50.30;;;;;;5024102;28;20029;-74
2022/03/13 12:46:31;;;;;;;8.18;5.63;;;17.10;51.90;;;;;;5019805;28;20401;-73